PWSweather.com
Personal Weather Stations
Station Observations
WD4JKH
Forsyth, GA 31029

Forsyth, GA 31029

Lat: 33.033225, Lon: -83.927995

Elevation: 709

Station Type: Davis Vantage VUE

High Low Average
Temperature 44.7°F7.1°C 36.1°F2.3°C 40.3°F4.6°C
Dew Point 42.1°F5.6°C 35.3°F1.8°C 39.0°F3.9°C
Winds 7.4 mph 11.9 kmh Calm Calm 1.0 mph S1.6 kmh S
Wind Gusts 15.0 mph24.1 kmh -- 5.0 mph8.0 kmh
Humidity 98% 84% 95%
Pressure 30.24 in1024.0 mb 30.03 in1016.9 mb -
Precipitation 0.17 in4.3 mm - -
Hour Temp Dew Point Humidity Winds Wind Gusts Pressure Precip Precip Rate Daily Precip Total
12:03 AM 36.1°F2.3°C 35.3°F1.8°C 97% Calm Calm 4.0 mph6.4 kmh 30.05 in1017.6 mb 0.00 in0.0 mm 0.00 in0.0 mm 0.00 in0.0 mm
12:08 AM 36.2°F2.3°C 35.4°F1.9°C 97% 1.0 mph W1.6 kmh W 4.0 mph6.4 kmh 30.05 in1017.6 mb 0.00 in0.0 mm 0.00 in0.0 mm 0.00 in0.0 mm
12:13 AM 36.2°F2.3°C 35.4°F1.9°C 97% 1.0 mph NW1.6 kmh NW 4.0 mph6.4 kmh 30.05 in1017.6 mb 0.00 in0.0 mm 0.00 in0.0 mm 0.00 in0.0 mm
12:18 AM 36.2°F2.3°C 35.4°F1.9°C 97% 1.0 mph NNW1.6 kmh NNW 4.0 mph6.4 kmh 30.04 in1017.3 mb 0.00 in0.0 mm 0.00 in0.0 mm 0.00 in0.0 mm
12:23 AM 36.3°F2.4°C 35.5°F1.9°C 97% 1.0 mph NW1.6 kmh NW 4.0 mph6.4 kmh 30.04 in1017.3 mb 0.00 in0.0 mm 0.00 in0.0 mm 0.00 in0.0 mm
12:28 AM 36.3°F2.4°C 35.5°F1.9°C 97% 1.0 mph NNW1.6 kmh NNW 4.0 mph6.4 kmh 30.04 in1017.3 mb 0.00 in0.0 mm 0.00 in0.0 mm 0.00 in0.0 mm
12:33 AM 36.3°F2.4°C 35.5°F1.9°C 97% 1.0 mph NW1.6 kmh NW 4.0 mph6.4 kmh 30.04 in1017.3 mb 0.01 in0.3 mm 0.12 in3.0 mm 0.01 in0.3 mm
12:38 AM 36.3°F2.4°C 35.5°F1.9°C 97% 1.3 mph NW2.1 kmh NW 4.0 mph6.4 kmh 30.04 in1017.3 mb 0.01 in0.3 mm 0.00 in0.0 mm 0.01 in0.3 mm
12:43 AM 36.3°F2.4°C 35.5°F1.9°C 97% Calm Calm 4.0 mph6.4 kmh 30.04 in1017.3 mb 0.01 in0.3 mm 0.00 in0.0 mm 0.01 in0.3 mm
12:48 AM 36.3°F2.4°C 35.5°F1.9°C 97% 1.2 mph NW1.9 kmh NW 4.0 mph6.4 kmh 30.04 in1017.3 mb 0.01 in0.3 mm 0.00 in0.0 mm 0.01 in0.3 mm
12:53 AM 36.4°F2.4°C 35.6°F2.0°C 97% Calm Calm 3.0 mph4.8 kmh 30.04 in1017.3 mb 0.01 in0.3 mm 0.00 in0.0 mm 0.01 in0.3 mm
12:58 AM 36.4°F2.4°C 35.6°F2.0°C 97% Calm Calm 2.0 mph3.2 kmh 30.04 in1017.3 mb 0.01 in0.3 mm 0.00 in0.0 mm 0.01 in0.3 mm
01:03 AM 36.5°F2.5°C 35.7°F2.1°C 97% 1.0 mph NW1.6 kmh NW 2.0 mph3.2 kmh 30.03 in1016.9 mb 0.01 in0.3 mm 0.00 in0.0 mm 0.01 in0.3 mm
01:08 AM 36.4°F2.4°C 35.6°F2.0°C 97% 1.0 mph NW1.6 kmh NW 2.0 mph3.2 kmh 30.04 in1017.3 mb 0.01 in0.3 mm 0.00 in0.0 mm 0.01 in0.3 mm
01:13 AM 36.5°F2.5°C 35.7°F2.1°C 97% 1.0 mph NW1.6 kmh NW 2.0 mph3.2 kmh 30.04 in1017.3 mb 0.01 in0.3 mm 0.00 in0.0 mm 0.01 in0.3 mm
01:18 AM 36.5°F2.5°C 35.7°F2.1°C 97% 2.6 mph N4.2 kmh N 4.0 mph6.4 kmh 30.04 in1017.3 mb 0.01 in0.3 mm 0.00 in0.0 mm 0.01 in0.3 mm
01:23 AM 36.5°F2.5°C 35.7°F2.1°C 97% 1.5 mph NW2.4 kmh NW 4.0 mph6.4 kmh 30.04 in1017.3 mb 0.01 in0.3 mm 0.00 in0.0 mm 0.01 in0.3 mm
01:28 AM 36.6°F2.6°C 35.8°F2.1°C 97% 1.7 mph NW2.7 kmh NW 4.0 mph6.4 kmh 30.04 in1017.3 mb 0.01 in0.3 mm 0.00 in0.0 mm 0.01 in0.3 mm
01:33 AM 36.6°F2.6°C 35.8°F2.1°C 97% Calm Calm 4.0 mph6.4 kmh 30.04 in1017.3 mb 0.00 in0.0 mm 0.00 in0.0 mm 0.01 in0.3 mm
01:38 AM 36.7°F2.6°C 35.9°F2.2°C 97% 1.2 mph NNW1.9 kmh NNW 4.0 mph6.4 kmh 30.04 in1017.3 mb 0.00 in0.0 mm 0.00 in0.0 mm 0.01 in0.3 mm
01:43 AM 36.7°F2.6°C 35.9°F2.2°C 97% Calm Calm 4.0 mph6.4 kmh 30.04 in1017.3 mb 0.00 in0.0 mm 0.00 in0.0 mm 0.01 in0.3 mm
01:48 AM 36.7°F2.6°C 35.9°F2.2°C 97% 1.0 mph NNW1.6 kmh NNW 2.0 mph3.2 kmh 30.04 in1017.3 mb 0.00 in0.0 mm 0.00 in0.0 mm 0.01 in0.3 mm
01:53 AM 36.7°F2.6°C 35.9°F2.2°C 97% 1.0 mph NW1.6 kmh NW 2.0 mph3.2 kmh 30.04 in1017.3 mb 0.00 in0.0 mm 0.00 in0.0 mm 0.01 in0.3 mm
01:58 AM 36.8°F2.7°C 36.0°F2.2°C 97% 1.4 mph NW2.3 kmh NW 2.0 mph3.2 kmh 30.04 in1017.3 mb 0.00 in0.0 mm 0.00 in0.0 mm 0.01 in0.3 mm
02:03 AM 36.8°F2.7°C 36.0°F2.2°C 97% 1.0 mph NW1.6 kmh NW 2.0 mph3.2 kmh 30.04 in1017.3 mb 0.00 in0.0 mm 0.00 in0.0 mm 0.01 in0.3 mm
02:08 AM 36.9°F2.7°C 36.1°F2.3°C 97% 1.0 mph NW1.6 kmh NW 2.0 mph3.2 kmh 30.04 in1017.3 mb 0.00 in0.0 mm 0.00 in0.0 mm 0.01 in0.3 mm
02:13 AM 36.9°F2.7°C 36.1°F2.3°C 97% 1.0 mph N1.6 kmh N 2.0 mph3.2 kmh 30.04 in1017.3 mb 0.00 in0.0 mm 0.00 in0.0 mm 0.01 in0.3 mm
02:18 AM 36.9°F2.7°C 36.1°F2.3°C 97% Calm Calm 2.0 mph3.2 kmh 30.04 in1017.3 mb 0.00 in0.0 mm 0.00 in0.0 mm 0.01 in0.3 mm
02:23 AM 37.0°F2.8°C 36.2°F2.3°C 97% 1.0 mph NNW1.6 kmh NNW 2.0 mph3.2 kmh 30.04 in1017.3 mb 0.00 in0.0 mm 0.00 in0.0 mm 0.01 in0.3 mm
02:28 AM 37.1°F2.8°C 36.3°F2.4°C 97% 1.5 mph NNW2.4 kmh NNW 3.0 mph4.8 kmh 30.04 in1017.3 mb 0.00 in0.0 mm 0.00 in0.0 mm 0.01 in0.3 mm
02:33 AM 37.1°F2.8°C 36.3°F2.4°C 97% 1.0 mph N1.6 kmh N 3.0 mph4.8 kmh 30.04 in1017.3 mb 0.00 in0.0 mm 0.00 in0.0 mm 0.01 in0.3 mm
02:38 AM 37.2°F2.9°C 36.4°F2.4°C 97% 1.0 mph N1.6 kmh N 3.0 mph4.8 kmh 30.04 in1017.3 mb 0.00 in0.0 mm 0.00 in0.0 mm 0.01 in0.3 mm
02:43 AM 37.2°F2.9°C 36.4°F2.4°C 97% 1.7 mph NNW2.7 kmh NNW 3.0 mph4.8 kmh 30.04 in1017.3 mb 0.00 in0.0 mm 0.00 in0.0 mm 0.01 in0.3 mm
02:48 AM 37.2°F2.9°C 36.4°F2.4°C 97% 1.3 mph NNW2.1 kmh NNW 3.0 mph4.8 kmh 30.05 in1017.6 mb 0.00 in0.0 mm 0.00 in0.0 mm 0.01 in0.3 mm
02:53 AM 37.2°F2.9°C 36.4°F2.4°C 97% 1.3 mph NW2.1 kmh NW 3.0 mph4.8 kmh 30.04 in1017.3 mb 0.00 in0.0 mm 0.00 in0.0 mm 0.01 in0.3 mm
02:58 AM 37.3°F2.9°C 36.5°F2.5°C 97% 1.0 mph NNW1.6 kmh NNW 3.0 mph4.8 kmh 30.05 in1017.6 mb 0.00 in0.0 mm 0.00 in0.0 mm 0.01 in0.3 mm
03:03 AM 37.3°F2.9°C 36.5°F2.5°C 97% 1.0 mph NNW1.6 kmh NNW 3.0 mph4.8 kmh 30.05 in1017.6 mb 0.00 in0.0 mm 0.00 in0.0 mm 0.01 in0.3 mm
03:08 AM 37.3°F2.9°C 36.5°F2.5°C 97% 1.0 mph NW1.6 kmh NW 3.0 mph4.8 kmh 30.05 in1017.6 mb 0.00 in0.0 mm 0.00 in0.0 mm 0.01 in0.3 mm
03:13 AM 37.4°F3.0°C 36.6°F2.6°C 97% 1.5 mph NNW2.4 kmh NNW 3.0 mph4.8 kmh 30.05 in1017.6 mb 0.00 in0.0 mm 0.00 in0.0 mm 0.01 in0.3 mm
03:18 AM 37.4°F3.0°C 36.6°F2.6°C 97% 1.8 mph N2.9 kmh N 5.0 mph8.0 kmh 30.05 in1017.6 mb 0.00 in0.0 mm 0.00 in0.0 mm 0.01 in0.3 mm
03:23 AM 37.5°F3.1°C 36.7°F2.6°C 97% 1.7 mph NNW2.7 kmh NNW 5.0 mph8.0 kmh 30.05 in1017.6 mb 0.00 in0.0 mm 0.00 in0.0 mm 0.01 in0.3 mm
03:29 AM 37.5°F3.1°C 36.7°F2.6°C 97% 1.0 mph NNW1.6 kmh NNW 5.0 mph8.0 kmh 30.05 in1017.6 mb 0.00 in0.0 mm 0.00 in0.0 mm 0.01 in0.3 mm
03:33 AM 37.5°F3.1°C 36.7°F2.6°C 97% Calm Calm 5.0 mph8.0 kmh 30.05 in1017.6 mb 0.00 in0.0 mm 0.00 in0.0 mm 0.01 in0.3 mm
03:39 AM 37.6°F3.1°C 36.8°F2.7°C 97% Calm Calm 5.0 mph8.0 kmh 30.05 in1017.6 mb 0.00 in0.0 mm 0.00 in0.0 mm 0.01 in0.3 mm
03:44 AM 37.6°F3.1°C 36.8°F2.7°C 97% 1.5 mph N2.4 kmh N 4.0 mph6.4 kmh 30.05 in1017.6 mb 0.00 in0.0 mm 0.00 in0.0 mm 0.01 in0.3 mm
03:49 AM 37.6°F3.1°C 36.8°F2.7°C 97% Calm Calm 4.0 mph6.4 kmh 30.06 in1017.9 mb 0.00 in0.0 mm 0.00 in0.0 mm 0.01 in0.3 mm
03:54 AM 37.6°F3.1°C 36.8°F2.7°C 97% Calm Calm 4.0 mph6.4 kmh 30.06 in1017.9 mb 0.00 in0.0 mm 0.00 in0.0 mm 0.01 in0.3 mm
03:59 AM 37.6°F3.1°C 36.8°F2.7°C 97% Calm Calm 4.0 mph6.4 kmh 30.05 in1017.6 mb 0.00 in0.0 mm 0.00 in0.0 mm 0.01 in0.3 mm
04:04 AM 37.6°F3.1°C 36.8°F2.7°C 97% 2.9 mph N4.7 kmh N 6.0 mph9.7 kmh 30.06 in1017.9 mb 0.00 in0.0 mm 0.00 in0.0 mm 0.01 in0.3 mm
04:09 AM 37.5°F3.1°C 36.7°F2.6°C 97% Calm Calm 6.0 mph9.7 kmh 30.06 in1017.9 mb 0.00 in0.0 mm 0.00 in0.0 mm 0.01 in0.3 mm
04:14 AM 37.6°F3.1°C 36.8°F2.7°C 97% 1.0 mph NW1.6 kmh NW 6.0 mph9.7 kmh 30.06 in1017.9 mb 0.00 in0.0 mm 0.00 in0.0 mm 0.01 in0.3 mm
04:19 AM 37.6°F3.1°C 36.8°F2.7°C 97% Calm Calm 6.0 mph9.7 kmh 30.06 in1017.9 mb 0.00 in0.0 mm 0.00 in0.0 mm 0.01 in0.3 mm
04:24 AM 37.6°F3.1°C 36.8°F2.7°C 97% 1.0 mph NNW1.6 kmh NNW 2.0 mph3.2 kmh 30.06 in1017.9 mb 0.00 in0.0 mm 0.00 in0.0 mm 0.01 in0.3 mm
04:28 AM 37.6°F3.1°C 36.8°F2.7°C 97% 1.0 mph N1.6 kmh N 1.0 mph1.6 kmh 30.06 in1017.9 mb 0.00 in0.0 mm 0.00 in0.0 mm 0.01 in0.3 mm
04:33 AM 37.6°F3.1°C 36.8°F2.7°C 97% 1.0 mph NNW1.6 kmh NNW 1.0 mph1.6 kmh 30.05 in1017.6 mb 0.00 in0.0 mm 0.00 in0.0 mm 0.01 in0.3 mm
04:38 AM 37.6°F3.1°C 36.8°F2.7°C 97% Calm Calm 1.0 mph1.6 kmh 30.06 in1017.9 mb 0.00 in0.0 mm 0.00 in0.0 mm 0.01 in0.3 mm
04:43 AM 37.6°F3.1°C 36.8°F2.7°C 97% 1.0 mph NE1.6 kmh NE 1.0 mph1.6 kmh 30.05 in1017.6 mb 0.00 in0.0 mm 0.00 in0.0 mm 0.01 in0.3 mm
04:48 AM 37.6°F3.1°C 36.8°F2.7°C 97% Calm Calm 1.0 mph1.6 kmh 30.05 in1017.6 mb 0.00 in0.0 mm 0.00 in0.0 mm 0.01 in0.3 mm
04:53 AM 37.6°F3.1°C 36.8°F2.7°C 97% Calm Calm 1.0 mph1.6 kmh 30.06 in1017.9 mb 0.00 in0.0 mm 0.00 in0.0 mm 0.01 in0.3 mm
04:58 AM 37.7°F3.2°C 36.9°F2.7°C 97% Calm Calm 1.0 mph1.6 kmh 30.06 in1017.9 mb 0.00 in0.0 mm 0.00 in0.0 mm 0.01 in0.3 mm
05:03 AM 37.6°F3.1°C 36.8°F2.7°C 97% 1.0 mph NNW1.6 kmh NNW 1.0 mph1.6 kmh 30.05 in1017.6 mb 0.00 in0.0 mm 0.00 in0.0 mm 0.01 in0.3 mm
05:08 AM 37.6°F3.1°C 36.8°F2.7°C 97% Calm Calm 1.0 mph1.6 kmh 30.05 in1017.6 mb 0.00 in0.0 mm 0.00 in0.0 mm 0.01 in0.3 mm
05:13 AM 37.7°F3.2°C 36.9°F2.7°C 97% Calm Calm 1.0 mph1.6 kmh 30.05 in1017.6 mb 0.00 in0.0 mm 0.00 in0.0 mm 0.01 in0.3 mm
05:18 AM 37.7°F3.2°C 36.9°F2.7°C 97% Calm Calm 1.0 mph1.6 kmh 30.06 in1017.9 mb 0.00 in0.0 mm 0.00 in0.0 mm 0.01 in0.3 mm
05:23 AM 37.7°F3.2°C 36.9°F2.7°C 97% Calm Calm 1.0 mph1.6 kmh 30.06 in1017.9 mb 0.00 in0.0 mm 0.00 in0.0 mm 0.01 in0.3 mm
05:28 AM 37.8°F3.2°C 37.0°F2.8°C 97% Calm Calm 1.0 mph1.6 kmh 30.06 in1017.9 mb 0.00 in0.0 mm 0.00 in0.0 mm 0.01 in0.3 mm
05:33 AM 37.9°F3.3°C 37.1°F2.8°C 97% Calm Calm 1.0 mph1.6 kmh 30.06 in1017.9 mb 0.00 in0.0 mm 0.00 in0.0 mm 0.01 in0.3 mm
05:38 AM 37.9°F3.3°C 37.4°F3.0°C 98% Calm Calm 1.0 mph1.6 kmh 30.06 in1017.9 mb 0.00 in0.0 mm 0.00 in0.0 mm 0.01 in0.3 mm
05:43 AM 38.0°F3.3°C 37.5°F3.1°C 98% 1.0 mph NW1.6 kmh NW 1.0 mph1.6 kmh 30.06 in1017.9 mb 0.00 in0.0 mm 0.00 in0.0 mm 0.01 in0.3 mm
05:48 AM 38.1°F3.4°C 37.6°F3.1°C 98% Calm Calm 1.0 mph1.6 kmh 30.06 in1017.9 mb 0.00 in0.0 mm 0.00 in0.0 mm 0.01 in0.3 mm
05:53 AM 38.1°F3.4°C 37.6°F3.1°C 98% Calm Calm 1.0 mph1.6 kmh 30.07 in1018.3 mb 0.00 in0.0 mm 0.00 in0.0 mm 0.01 in0.3 mm
05:58 AM 38.1°F3.4°C 37.6°F3.1°C 98% 1.0 mph NNW1.6 kmh NNW 1.0 mph1.6 kmh 30.07 in1018.3 mb 0.00 in0.0 mm 0.00 in0.0 mm 0.01 in0.3 mm
06:03 AM 38.2°F3.4°C 37.7°F3.2°C 98% Calm Calm 1.0 mph1.6 kmh 30.07 in1018.3 mb 0.00 in0.0 mm 0.00 in0.0 mm 0.01 in0.3 mm
06:08 AM 38.2°F3.4°C 37.7°F3.2°C 98% Calm Calm 1.0 mph1.6 kmh 30.07 in1018.3 mb 0.00 in0.0 mm 0.00 in0.0 mm 0.01 in0.3 mm
06:13 AM 38.3°F3.5°C 37.8°F3.2°C 98% 1.0 mph NW1.6 kmh NW 1.0 mph1.6 kmh 30.07 in1018.3 mb 0.00 in0.0 mm 0.00 in0.0 mm 0.01 in0.3 mm
06:18 AM 38.3°F3.5°C 37.8°F3.2°C 98% 1.0 mph NW1.6 kmh NW 2.0 mph3.2 kmh 30.08 in1018.6 mb 0.00 in0.0 mm 0.00 in0.0 mm 0.01 in0.3 mm
06:23 AM 38.4°F3.6°C 37.9°F3.3°C 98% 1.3 mph NW2.1 kmh NW 2.0 mph3.2 kmh 30.08 in1018.6 mb 0.00 in0.0 mm 0.00 in0.0 mm 0.01 in0.3 mm
06:28 AM 38.4°F3.6°C 37.9°F3.3°C 98% Calm Calm 2.0 mph3.2 kmh 30.08 in1018.6 mb 0.00 in0.0 mm 0.00 in0.0 mm 0.01 in0.3 mm
06:33 AM 38.5°F3.6°C 38.0°F3.3°C 98% Calm Calm 2.0 mph3.2 kmh 30.08 in1018.6 mb 0.00 in0.0 mm 0.00 in0.0 mm 0.01 in0.3 mm
06:38 AM 38.5°F3.6°C 38.0°F3.3°C 98% Calm Calm 2.0 mph3.2 kmh 30.08 in1018.6 mb 0.00 in0.0 mm 0.00 in0.0 mm 0.01 in0.3 mm
06:43 AM 38.5°F3.6°C 38.0°F3.3°C 98% Calm Calm 1.0 mph1.6 kmh 30.08 in1018.6 mb 0.00 in0.0 mm 0.00 in0.0 mm 0.01 in0.3 mm
06:48 AM 38.5°F3.6°C 38.0°F3.3°C 98% Calm Calm 1.0 mph1.6 kmh 30.08 in1018.6 mb 0.00 in0.0 mm 0.00 in0.0 mm 0.01 in0.3 mm
06:53 AM 38.5°F3.6°C 38.0°F3.3°C 98% Calm Calm 1.0 mph1.6 kmh 30.09 in1019.0 mb 0.00 in0.0 mm 0.00 in0.0 mm 0.01 in0.3 mm
06:58 AM 38.6°F3.7°C 38.1°F3.4°C 98% 1.0 mph NNW1.6 kmh NNW 1.0 mph1.6 kmh 30.09 in1019.0 mb 0.00 in0.0 mm 0.00 in0.0 mm 0.01 in0.3 mm
07:03 AM 38.6°F3.7°C 38.1°F3.4°C 98% Calm Calm 1.0 mph1.6 kmh 30.09 in1019.0 mb 0.00 in0.0 mm 0.00 in0.0 mm 0.01 in0.3 mm
07:09 AM 38.7°F3.7°C 38.2°F3.4°C 98% Calm Calm 1.0 mph1.6 kmh 30.09 in1019.0 mb 0.00 in0.0 mm 0.00 in0.0 mm 0.01 in0.3 mm
07:14 AM 38.8°F3.8°C 38.3°F3.5°C 98% Calm Calm 1.0 mph1.6 kmh 30.09 in1019.0 mb 0.00 in0.0 mm 0.00 in0.0 mm 0.01 in0.3 mm
07:19 AM 38.9°F3.8°C 38.4°F3.6°C 98% 1.0 mph NNW1.6 kmh NNW 1.0 mph1.6 kmh 30.09 in1019.0 mb 0.00 in0.0 mm 0.00 in0.0 mm 0.01 in0.3 mm
07:24 AM 39.0°F3.9°C 38.5°F3.6°C 98% Calm Calm 1.0 mph1.6 kmh 30.09 in1019.0 mb 0.00 in0.0 mm 0.00 in0.0 mm 0.01 in0.3 mm
07:29 AM 39.1°F3.9°C 38.6°F3.7°C 98% 1.0 mph W1.6 kmh W 2.0 mph3.2 kmh 30.10 in1019.3 mb 0.00 in0.0 mm 0.00 in0.0 mm 0.01 in0.3 mm
07:34 AM 39.2°F4.0°C 38.7°F3.7°C 98% 1.2 mph WNW1.9 kmh WNW 2.0 mph3.2 kmh 30.10 in1019.3 mb 0.00 in0.0 mm 0.00 in0.0 mm 0.01 in0.3 mm
07:39 AM 39.1°F3.9°C 38.6°F3.7°C 98% 1.0 mph WNW1.6 kmh WNW 2.0 mph3.2 kmh 30.10 in1019.3 mb 0.00 in0.0 mm 0.00 in0.0 mm 0.01 in0.3 mm
07:44 AM 39.2°F4.0°C 38.7°F3.7°C 98% Calm Calm 2.0 mph3.2 kmh 30.10 in1019.3 mb 0.00 in0.0 mm 0.00 in0.0 mm 0.01 in0.3 mm
07:49 AM 39.2°F4.0°C 38.7°F3.7°C 98% 1.0 mph W1.6 kmh W 2.0 mph3.2 kmh 30.10 in1019.3 mb 0.00 in0.0 mm 0.00 in0.0 mm 0.01 in0.3 mm
07:54 AM 39.2°F4.0°C 38.7°F3.7°C 98% 1.0 mph WNW1.6 kmh WNW 1.0 mph1.6 kmh 30.11 in1019.6 mb 0.00 in0.0 mm 0.00 in0.0 mm 0.01 in0.3 mm
07:59 AM 39.2°F4.0°C 38.4°F3.6°C 97% 1.0 mph WNW1.6 kmh WNW 1.0 mph1.6 kmh 30.11 in1019.6 mb 0.00 in0.0 mm 0.00 in0.0 mm 0.01 in0.3 mm
08:04 AM 39.3°F4.1°C 38.5°F3.6°C 97% Calm Calm 2.0 mph3.2 kmh 30.11 in1019.6 mb 0.00 in0.0 mm 0.00 in0.0 mm 0.01 in0.3 mm
08:09 AM 39.3°F4.1°C 38.5°F3.6°C 97% 1.4 mph WNW2.3 kmh WNW 3.0 mph4.8 kmh 30.11 in1019.6 mb 0.00 in0.0 mm 0.00 in0.0 mm 0.01 in0.3 mm
08:14 AM 39.3°F4.1°C 38.5°F3.6°C 97% 1.0 mph WNW1.6 kmh WNW 3.0 mph4.8 kmh 30.11 in1019.6 mb 0.00 in0.0 mm 0.00 in0.0 mm 0.01 in0.3 mm
08:19 AM 39.5°F4.2°C 38.7°F3.7°C 97% 1.4 mph NW2.3 kmh NW 3.0 mph4.8 kmh 30.11 in1019.6 mb 0.00 in0.0 mm 0.00 in0.0 mm 0.01 in0.3 mm
08:24 AM 39.5°F4.2°C 38.7°F3.7°C 97% 1.0 mph WNW1.6 kmh WNW 3.0 mph4.8 kmh 30.12 in1020.0 mb 0.00 in0.0 mm 0.00 in0.0 mm 0.01 in0.3 mm
08:29 AM 39.6°F4.2°C 38.8°F3.8°C 97% 1.1 mph W1.8 kmh W 3.0 mph4.8 kmh 30.12 in1020.0 mb 0.00 in0.0 mm 0.00 in0.0 mm 0.01 in0.3 mm
08:34 AM 39.6°F4.2°C 38.8°F3.8°C 97% 1.8 mph WNW2.9 kmh WNW 3.0 mph4.8 kmh 30.11 in1019.6 mb 0.00 in0.0 mm 0.00 in0.0 mm 0.01 in0.3 mm
08:39 AM 39.6°F4.2°C 38.8°F3.8°C 97% 1.4 mph WNW2.3 kmh WNW 3.0 mph4.8 kmh 30.12 in1020.0 mb 0.00 in0.0 mm 0.00 in0.0 mm 0.01 in0.3 mm
08:44 AM 39.7°F4.3°C 38.9°F3.8°C 97% 1.3 mph NW2.1 kmh NW 3.0 mph4.8 kmh 30.11 in1019.6 mb 0.00 in0.0 mm 0.00 in0.0 mm 0.01 in0.3 mm
08:49 AM 39.8°F4.3°C 39.0°F3.9°C 97% 1.8 mph NW2.9 kmh NW 3.0 mph4.8 kmh 30.12 in1020.0 mb 0.00 in0.0 mm 0.00 in0.0 mm 0.01 in0.3 mm
08:54 AM 39.9°F4.4°C 38.8°F3.8°C 96% 1.4 mph NW2.3 kmh NW 5.0 mph8.0 kmh 30.12 in1020.0 mb 0.00 in0.0 mm 0.00 in0.0 mm 0.01 in0.3 mm
08:59 AM 39.9°F4.4°C 38.8°F3.8°C 96% 1.0 mph NW1.6 kmh NW 5.0 mph8.0 kmh 30.12 in1020.0 mb 0.00 in0.0 mm 0.00 in0.0 mm 0.01 in0.3 mm
09:04 AM 39.9°F4.4°C 38.8°F3.8°C 96% 1.4 mph NNW2.3 kmh NNW 5.0 mph8.0 kmh 30.13 in1020.3 mb 0.00 in0.0 mm 0.00 in0.0 mm 0.01 in0.3 mm
09:09 AM 40.1°F4.5°C 39.0°F3.9°C 96% Calm Calm 5.0 mph8.0 kmh 30.13 in1020.3 mb 0.00 in0.0 mm 0.00 in0.0 mm 0.01 in0.3 mm
09:14 AM 40.2°F4.6°C 39.2°F4.0°C 96% 1.1 mph NNW1.8 kmh NNW 5.0 mph8.0 kmh 30.13 in1020.3 mb 0.00 in0.0 mm 0.00 in0.0 mm 0.01 in0.3 mm
09:19 AM 40.3°F4.6°C 39.2°F4.0°C 96% 1.3 mph NNW2.1 kmh NNW 5.0 mph8.0 kmh 30.13 in1020.3 mb 0.00 in0.0 mm 0.00 in0.0 mm 0.01 in0.3 mm
09:24 AM 40.4°F4.7°C 39.3°F4.1°C 96% 1.4 mph NW2.3 kmh NW 4.0 mph6.4 kmh 30.14 in1020.7 mb 0.00 in0.0 mm 0.00 in0.0 mm 0.01 in0.3 mm
09:28 AM 40.4°F4.7°C 39.3°F4.1°C 96% 1.3 mph NW2.1 kmh NW 4.0 mph6.4 kmh 30.13 in1020.3 mb 0.00 in0.0 mm 0.00 in0.0 mm 0.01 in0.3 mm
09:33 AM 40.6°F4.8°C 39.5°F4.2°C 96% 2.6 mph NW4.2 kmh NW 5.0 mph8.0 kmh 30.14 in1020.7 mb 0.00 in0.0 mm 0.00 in0.0 mm 0.01 in0.3 mm
09:38 AM 40.6°F4.8°C 39.2°F4.0°C 95% 1.2 mph NW1.9 kmh NW 5.0 mph8.0 kmh 30.13 in1020.3 mb 0.00 in0.0 mm 0.00 in0.0 mm 0.01 in0.3 mm
09:43 AM 40.8°F4.9°C 39.4°F4.1°C 95% 3.2 mph NW5.1 kmh NW 5.0 mph8.0 kmh 30.13 in1020.3 mb 0.00 in0.0 mm 0.00 in0.0 mm 0.01 in0.3 mm
09:48 AM 41.2°F5.1°C 39.8°F4.3°C 95% 1.0 mph NW1.6 kmh NW 5.0 mph8.0 kmh 30.14 in1020.7 mb 0.00 in0.0 mm 0.00 in0.0 mm 0.01 in0.3 mm
09:53 AM 41.5°F5.3°C 40.1°F4.5°C 95% 1.9 mph NW3.1 kmh NW 5.0 mph8.0 kmh 30.14 in1020.7 mb 0.00 in0.0 mm 0.00 in0.0 mm 0.01 in0.3 mm
09:58 AM 41.6°F5.3°C 40.0°F4.4°C 94% 2.1 mph WNW3.4 kmh WNW 6.0 mph9.7 kmh 30.14 in1020.7 mb 0.00 in0.0 mm 0.00 in0.0 mm 0.01 in0.3 mm
10:03 AM 41.8°F5.4°C 39.9°F4.4°C 93% Calm Calm 6.0 mph9.7 kmh 30.14 in1020.7 mb 0.00 in0.0 mm 0.00 in0.0 mm 0.01 in0.3 mm
10:08 AM 42.0°F5.6°C 40.4°F4.7°C 94% 1.1 mph N1.8 kmh N 6.0 mph9.7 kmh 30.14 in1020.7 mb 0.00 in0.0 mm 0.00 in0.0 mm 0.01 in0.3 mm
10:13 AM 42.1°F5.6°C 40.2°F4.6°C 93% 1.4 mph NW2.3 kmh NW 6.0 mph9.7 kmh 30.14 in1020.7 mb 0.00 in0.0 mm 0.00 in0.0 mm 0.01 in0.3 mm
10:18 AM 42.1°F5.6°C 40.2°F4.6°C 93% 3.2 mph NW5.1 kmh NW 6.0 mph9.7 kmh 30.14 in1020.7 mb 0.00 in0.0 mm 0.00 in0.0 mm 0.01 in0.3 mm
10:23 AM 42.0°F5.6°C 39.8°F4.3°C 92% 2.1 mph NNW3.4 kmh NNW 6.0 mph9.7 kmh 30.15 in1021.0 mb 0.00 in0.0 mm 0.00 in0.0 mm 0.01 in0.3 mm
10:29 AM 42.0°F5.6°C 39.8°F4.3°C 92% 1.0 mph N1.6 kmh N 6.0 mph9.7 kmh 30.14 in1020.7 mb 0.00 in0.0 mm 0.00 in0.0 mm 0.01 in0.3 mm
10:34 AM 41.9°F5.5°C 39.4°F4.1°C 91% 3.2 mph N5.1 kmh N 8.0 mph12.9 kmh 30.15 in1021.0 mb 0.00 in0.0 mm 0.00 in0.0 mm 0.01 in0.3 mm
10:39 AM 42.0°F5.6°C 39.8°F4.3°C 92% 1.3 mph NNE2.1 kmh NNE 8.0 mph12.9 kmh 30.15 in1021.0 mb 0.00 in0.0 mm 0.00 in0.0 mm 0.01 in0.3 mm
10:44 AM 42.1°F5.6°C 39.9°F4.4°C 92% 1.8 mph NNE2.9 kmh NNE 8.0 mph12.9 kmh 30.15 in1021.0 mb 0.00 in0.0 mm 0.00 in0.0 mm 0.01 in0.3 mm
10:49 AM 42.2°F5.7°C 39.7°F4.3°C 91% 1.0 mph NW1.6 kmh NW 8.0 mph12.9 kmh 30.15 in1021.0 mb 0.00 in0.0 mm 0.00 in0.0 mm 0.01 in0.3 mm
10:54 AM 42.8°F6.0°C 40.3°F4.6°C 91% 1.0 mph NE1.6 kmh NE 3.0 mph4.8 kmh 30.15 in1021.0 mb 0.00 in0.0 mm 0.00 in0.0 mm 0.01 in0.3 mm
10:59 AM 43.2°F6.2°C 40.1°F4.5°C 89% 2.4 mph NE3.9 kmh NE 4.0 mph6.4 kmh 30.15 in1021.0 mb 0.00 in0.0 mm 0.00 in0.0 mm 0.01 in0.3 mm
11:04 AM 43.3°F6.3°C 39.4°F4.1°C 86% 2.0 mph NE3.2 kmh NE 5.0 mph8.0 kmh 30.15 in1021.0 mb 0.00 in0.0 mm 0.00 in0.0 mm 0.01 in0.3 mm
11:09 AM 43.4°F6.3°C 38.9°F3.8°C 84% 2.4 mph NE3.9 kmh NE 5.0 mph8.0 kmh 30.15 in1021.0 mb 0.00 in0.0 mm 0.00 in0.0 mm 0.01 in0.3 mm
11:14 AM 43.3°F6.3°C 39.4°F4.1°C 86% 1.5 mph NE2.4 kmh NE 5.0 mph8.0 kmh 30.15 in1021.0 mb 0.00 in0.0 mm 0.00 in0.0 mm 0.01 in0.3 mm
11:19 AM 43.1°F6.2°C 39.2°F4.0°C 86% 4.4 mph NE7.1 kmh NE 11.0 mph17.7 kmh 30.15 in1021.0 mb 0.00 in0.0 mm 0.00 in0.0 mm 0.01 in0.3 mm
11:24 AM 42.9°F6.1°C 39.6°F4.2°C 88% 1.3 mph NNE2.1 kmh NNE 11.0 mph17.7 kmh 30.15 in1021.0 mb 0.00 in0.0 mm 0.00 in0.0 mm 0.01 in0.3 mm
11:29 AM 42.6°F5.9°C 39.3°F4.1°C 88% 1.1 mph ENE1.8 kmh ENE 11.0 mph17.7 kmh 30.15 in1021.0 mb 0.00 in0.0 mm 0.00 in0.0 mm 0.01 in0.3 mm
11:34 AM 42.5°F5.8°C 39.4°F4.1°C 89% 3.2 mph NE5.1 kmh NE 11.0 mph17.7 kmh 30.15 in1021.0 mb 0.01 in0.3 mm 0.12 in3.0 mm 0.02 in0.5 mm
11:39 AM 42.3°F5.7°C 39.5°F4.2°C 90% 3.3 mph NE5.3 kmh NE 9.0 mph14.5 kmh 30.15 in1021.0 mb 0.01 in0.3 mm 0.00 in0.0 mm 0.02 in0.5 mm
11:44 AM 42.1°F5.6°C 39.3°F4.1°C 90% 3.5 mph NE5.6 kmh NE 9.0 mph14.5 kmh 30.15 in1021.0 mb 0.01 in0.3 mm 0.00 in0.0 mm 0.02 in0.5 mm
11:49 AM 42.0°F5.6°C 39.8°F4.3°C 92% 2.4 mph NE3.9 kmh NE 9.0 mph14.5 kmh 30.14 in1020.7 mb 0.01 in0.3 mm 0.00 in0.0 mm 0.02 in0.5 mm
11:54 AM 42.1°F5.6°C 39.9°F4.4°C 92% 1.3 mph NE2.1 kmh NE 7.0 mph11.3 kmh 30.14 in1020.7 mb 0.01 in0.3 mm 0.00 in0.0 mm 0.02 in0.5 mm
11:59 AM 42.4°F5.8°C 40.5°F4.7°C 93% 1.0 mph NNW1.6 kmh NNW 7.0 mph11.3 kmh 30.14 in1020.7 mb 0.01 in0.3 mm 0.00 in0.0 mm 0.02 in0.5 mm
12:04 PM 42.7°F5.9°C 40.5°F4.7°C 92% Calm Calm 6.0 mph9.7 kmh 30.14 in1020.7 mb 0.01 in0.3 mm 0.00 in0.0 mm 0.02 in0.5 mm
12:09 PM 43.0°F6.1°C 40.8°F4.9°C 92% 1.0 mph WNW1.6 kmh WNW 2.0 mph3.2 kmh 30.14 in1020.7 mb 0.01 in0.3 mm 0.00 in0.0 mm 0.02 in0.5 mm
12:14 PM 43.1°F6.2°C 40.6°F4.8°C 91% 2.1 mph NW3.4 kmh NW 4.0 mph6.4 kmh 30.13 in1020.3 mb 0.01 in0.3 mm 0.00 in0.0 mm 0.02 in0.5 mm
12:19 PM 43.4°F6.3°C 40.6°F4.8°C 90% 1.6 mph NE2.6 kmh NE 4.0 mph6.4 kmh 30.13 in1020.3 mb 0.01 in0.3 mm 0.00 in0.0 mm 0.02 in0.5 mm
12:24 PM 43.4°F6.3°C 40.6°F4.8°C 90% 1.4 mph NNW2.3 kmh NNW 4.0 mph6.4 kmh 30.13 in1020.3 mb 0.01 in0.3 mm 0.00 in0.0 mm 0.02 in0.5 mm
12:29 PM 43.6°F6.4°C 40.8°F4.9°C 90% 1.0 mph WNW1.6 kmh WNW 4.0 mph6.4 kmh 30.13 in1020.3 mb 0.01 in0.3 mm 0.00 in0.0 mm 0.02 in0.5 mm
12:34 PM 43.6°F6.4°C 40.5°F4.7°C 89% 1.0 mph NW1.6 kmh NW 5.0 mph8.0 kmh 30.13 in1020.3 mb 0.00 in0.0 mm 0.00 in0.0 mm 0.02 in0.5 mm
12:39 PM 43.8°F6.6°C 40.8°F4.9°C 89% 1.5 mph NW2.4 kmh NW 5.0 mph8.0 kmh 30.13 in1020.3 mb 0.00 in0.0 mm 0.00 in0.0 mm 0.02 in0.5 mm
12:44 PM 43.7°F6.5°C 40.6°F4.8°C 89% 1.2 mph WNW1.9 kmh WNW 5.0 mph8.0 kmh 30.13 in1020.3 mb 0.00 in0.0 mm 0.00 in0.0 mm 0.02 in0.5 mm
12:49 PM 43.7°F6.5°C 40.6°F4.8°C 89% 2.1 mph WNW3.4 kmh WNW 5.0 mph8.0 kmh 30.13 in1020.3 mb 0.00 in0.0 mm 0.00 in0.0 mm 0.02 in0.5 mm
12:54 PM 43.7°F6.5°C 40.7°F4.8°C 89% 1.8 mph WNW2.9 kmh WNW 4.0 mph6.4 kmh 30.12 in1020.0 mb 0.00 in0.0 mm 0.00 in0.0 mm 0.02 in0.5 mm
12:59 PM 43.9°F6.6°C 41.1°F5.1°C 90% 1.0 mph WNW1.6 kmh WNW 4.0 mph6.4 kmh 30.12 in1020.0 mb 0.00 in0.0 mm 0.00 in0.0 mm 0.02 in0.5 mm
01:04 PM 44.4°F6.9°C 41.7°F5.4°C 90% 1.3 mph W2.1 kmh W 4.0 mph6.4 kmh 30.12 in1020.0 mb 0.00 in0.0 mm 0.00 in0.0 mm 0.02 in0.5 mm
01:09 PM 44.7°F7.1°C 41.3°F5.2°C 88% 1.4 mph NW2.3 kmh NW 3.0 mph4.8 kmh 30.12 in1020.0 mb 0.00 in0.0 mm 0.00 in0.0 mm 0.02 in0.5 mm
01:14 PM 44.7°F7.1°C 41.0°F5.0°C 87% 3.7 mph WNW6.0 kmh WNW 6.0 mph9.7 kmh 30.12 in1020.0 mb 0.00 in0.0 mm 0.00 in0.0 mm 0.02 in0.5 mm
01:19 PM 44.2°F6.8°C 40.8°F4.9°C 88% 2.1 mph NW3.4 kmh NW 6.0 mph9.7 kmh 30.11 in1019.6 mb 0.00 in0.0 mm 0.00 in0.0 mm 0.02 in0.5 mm
01:24 PM 44.1°F6.7°C 41.1°F5.1°C 89% 1.7 mph NNW2.7 kmh NNW 6.0 mph9.7 kmh 30.11 in1019.6 mb 0.00 in0.0 mm 0.00 in0.0 mm 0.02 in0.5 mm
01:29 PM 44.2°F6.8°C 41.1°F5.1°C 89% 1.4 mph WSW2.3 kmh WSW 6.0 mph9.7 kmh 30.11 in1019.6 mb 0.00 in0.0 mm 0.00 in0.0 mm 0.02 in0.5 mm
01:34 PM 44.1°F6.7°C 40.7°F4.8°C 88% Calm Calm 6.0 mph9.7 kmh 30.11 in1019.6 mb 0.00 in0.0 mm 0.00 in0.0 mm 0.02 in0.5 mm
01:39 PM 44.1°F6.7°C 41.0°F5.0°C 89% 1.0 mph NW1.6 kmh NW 6.0 mph9.7 kmh 30.11 in1019.6 mb 0.00 in0.0 mm 0.00 in0.0 mm 0.02 in0.5 mm
01:44 PM 44.0°F6.7°C 40.4°F4.7°C 87% 1.0 mph N1.6 kmh N 6.0 mph9.7 kmh 30.11 in1019.6 mb 0.00 in0.0 mm 0.00 in0.0 mm 0.02 in0.5 mm
01:49 PM 43.7°F6.5°C 40.6°F4.8°C 89% 1.8 mph NE2.9 kmh NE 6.0 mph9.7 kmh 30.11 in1019.6 mb 0.01 in0.3 mm 0.12 in3.0 mm 0.03 in0.8 mm
01:54 PM 43.1°F6.2°C 40.6°F4.8°C 91% 1.9 mph ENE3.1 kmh ENE 6.0 mph9.7 kmh 30.11 in1019.6 mb 0.02 in0.5 mm 0.12 in3.0 mm 0.04 in1.0 mm
01:59 PM 42.3°F5.7°C 40.1°F4.5°C 92% 3.2 mph NE5.1 kmh NE 6.0 mph9.7 kmh 30.11 in1019.6 mb 0.02 in0.5 mm 0.00 in0.0 mm 0.04 in1.0 mm
02:04 PM 42.1°F5.6°C 40.5°F4.7°C 94% 1.4 mph NE2.3 kmh NE 6.0 mph9.7 kmh 30.11 in1019.6 mb 0.02 in0.5 mm 0.00 in0.0 mm 0.04 in1.0 mm
02:09 PM 42.0°F5.6°C 40.4°F4.7°C 94% 1.9 mph NE3.1 kmh NE 6.0 mph9.7 kmh 30.11 in1019.6 mb 0.02 in0.5 mm 0.00 in0.0 mm 0.04 in1.0 mm
02:14 PM 41.9°F5.5°C 40.3°F4.6°C 94% 1.2 mph NE1.9 kmh NE 6.0 mph9.7 kmh 30.11 in1019.6 mb 0.03 in0.8 mm 0.12 in3.0 mm 0.05 in1.3 mm
02:19 PM 41.9°F5.5°C 40.5°F4.7°C 95% 1.2 mph NE1.9 kmh NE 4.0 mph6.4 kmh 30.11 in1019.6 mb 0.03 in0.8 mm 0.00 in0.0 mm 0.05 in1.3 mm
02:25 PM 42.1°F5.6°C 40.7°F4.8°C 95% Calm Calm 4.0 mph6.4 kmh 30.11 in1019.6 mb 0.03 in0.8 mm 0.00 in0.0 mm 0.05 in1.3 mm
02:28 PM 42.2°F5.7°C 40.8°F4.9°C 95% Calm Calm 2.0 mph3.2 kmh 30.11 in1019.6 mb 0.03 in0.8 mm 0.00 in0.0 mm 0.05 in1.3 mm
02:33 PM 42.4°F5.8°C 41.0°F5.0°C 95% 1.0 mph NE1.6 kmh NE 2.0 mph3.2 kmh 30.11 in1019.6 mb 0.03 in0.8 mm 0.00 in0.0 mm 0.05 in1.3 mm
02:38 PM 42.4°F5.8°C 40.8°F4.9°C 94% 1.0 mph NE1.6 kmh NE 1.0 mph1.6 kmh 30.11 in1019.6 mb 0.03 in0.8 mm 0.00 in0.0 mm 0.05 in1.3 mm
02:43 PM 42.4°F5.8°C 40.8°F4.9°C 94% Calm Calm 1.0 mph1.6 kmh 30.11 in1019.6 mb 0.03 in0.8 mm 0.00 in0.0 mm 0.05 in1.3 mm
02:49 PM 42.4°F5.8°C 40.8°F4.9°C 94% Calm Calm 1.0 mph1.6 kmh 30.11 in1019.6 mb 0.02 in0.5 mm 0.00 in0.0 mm 0.05 in1.3 mm
02:54 PM 42.5°F5.8°C 41.1°F5.1°C 95% Calm Calm 1.0 mph1.6 kmh 30.11 in1019.6 mb 0.03 in0.8 mm 0.12 in3.0 mm 0.06 in1.5 mm
02:59 PM 42.5°F5.8°C 41.2°F5.1°C 95% Calm Calm -- 30.11 in1019.6 mb 0.02 in0.5 mm 0.00 in0.0 mm 0.06 in1.5 mm
03:04 PM 42.6°F5.9°C 41.2°F5.1°C 95% Calm Calm -- 30.11 in1019.6 mb 0.02 in0.5 mm 0.00 in0.0 mm 0.06 in1.5 mm
03:09 PM 42.8°F6.0°C 41.7°F5.4°C 96% Calm Calm -- 30.11 in1019.6 mb 0.02 in0.5 mm 0.00 in0.0 mm 0.06 in1.5 mm
03:14 PM 42.8°F6.0°C 41.5°F5.3°C 95% Calm Calm -- 30.11 in1019.6 mb 0.01 in0.3 mm 0.00 in0.0 mm 0.06 in1.5 mm
03:19 PM 42.8°F6.0°C 41.4°F5.2°C 95% Calm Calm -- 30.11 in1019.6 mb 0.01 in0.3 mm 0.00 in0.0 mm 0.06 in1.5 mm
03:24 PM 42.9°F6.1°C 41.5°F5.3°C 95% 1.0 mph N1.6 kmh N 1.0 mph1.6 kmh 30.11 in1019.6 mb 0.01 in0.3 mm 0.00 in0.0 mm 0.06 in1.5 mm
03:29 PM 43.2°F6.2°C 41.8°F5.4°C 95% Calm Calm 1.0 mph1.6 kmh 30.11 in1019.6 mb 0.01 in0.3 mm 0.00 in0.0 mm 0.06 in1.5 mm
03:34 PM 43.2°F6.2°C 41.6°F5.3°C 94% Calm Calm 2.0 mph3.2 kmh 30.11 in1019.6 mb 0.01 in0.3 mm 0.00 in0.0 mm 0.06 in1.5 mm
03:39 PM 43.4°F6.3°C 42.0°F5.6°C 95% Calm Calm 2.0 mph3.2 kmh 30.11 in1019.6 mb 0.01 in0.3 mm 0.00 in0.0 mm 0.06 in1.5 mm
03:44 PM 43.5°F6.4°C 42.1°F5.6°C 95% 1.6 mph NE2.6 kmh NE 2.0 mph3.2 kmh 30.11 in1019.6 mb 0.01 in0.3 mm 0.00 in0.0 mm 0.06 in1.5 mm
03:49 PM 43.4°F6.3°C 41.8°F5.4°C 94% 2.6 mph N4.2 kmh N 5.0 mph8.0 kmh 30.12 in1020.0 mb 0.01 in0.3 mm 0.00 in0.0 mm 0.06 in1.5 mm
03:54 PM 43.3°F6.3°C 41.6°F5.3°C 94% 2.7 mph NE4.3 kmh NE 6.0 mph9.7 kmh 30.12 in1020.0 mb 0.00 in0.0 mm 0.00 in0.0 mm 0.06 in1.5 mm
03:59 PM 43.2°F6.2°C 41.3°F5.2°C 93% 2.0 mph NNE3.2 kmh NNE 6.0 mph9.7 kmh 30.12 in1020.0 mb 0.00 in0.0 mm 0.00 in0.0 mm 0.06 in1.5 mm
04:04 PM 43.2°F6.2°C 41.3°F5.2°C 93% 2.1 mph NE3.4 kmh NE 6.0 mph9.7 kmh 30.12 in1020.0 mb 0.00 in0.0 mm 0.00 in0.0 mm 0.06 in1.5 mm
04:09 PM 43.2°F6.2°C 41.3°F5.2°C 93% 2.2 mph NNE3.5 kmh NNE 6.0 mph9.7 kmh 30.12 in1020.0 mb 0.00 in0.0 mm 0.00 in0.0 mm 0.06 in1.5 mm
04:14 PM 43.1°F6.2°C 41.2°F5.1°C 93% 1.5 mph NE2.4 kmh NE 6.0 mph9.7 kmh 30.12 in1020.0 mb 0.00 in0.0 mm 0.00 in0.0 mm 0.06 in1.5 mm
04:19 PM 43.0°F6.1°C 40.8°F4.9°C 92% 2.3 mph NE3.7 kmh NE 6.0 mph9.7 kmh 30.13 in1020.3 mb 0.00 in0.0 mm 0.00 in0.0 mm 0.06 in1.5 mm
04:24 PM 43.0°F6.1°C 40.8°F4.9°C 92% 1.3 mph NE2.1 kmh NE 6.0 mph9.7 kmh 30.13 in1020.3 mb 0.00 in0.0 mm 0.00 in0.0 mm 0.06 in1.5 mm
04:29 PM 43.0°F6.1°C 40.8°F4.9°C 92% 1.0 mph NE1.6 kmh NE 6.0 mph9.7 kmh 30.13 in1020.3 mb 0.00 in0.0 mm 0.00 in0.0 mm 0.06 in1.5 mm
04:34 PM 43.0°F6.1°C 40.8°F4.9°C 92% Calm Calm 5.0 mph8.0 kmh 30.13 in1020.3 mb 0.00 in0.0 mm 0.00 in0.0 mm 0.06 in1.5 mm
04:39 PM 43.0°F6.1°C 40.8°F4.9°C 92% 1.6 mph N2.6 kmh N 5.0 mph8.0 kmh 30.13 in1020.3 mb 0.00 in0.0 mm 0.00 in0.0 mm 0.06 in1.5 mm
04:44 PM 43.1°F6.2°C 41.2°F5.1°C 93% 1.0 mph NE1.6 kmh NE 3.0 mph4.8 kmh 30.14 in1020.7 mb 0.00 in0.0 mm 0.00 in0.0 mm 0.06 in1.5 mm
04:49 PM 43.0°F6.1°C 41.1°F5.1°C 93% 1.0 mph NNE1.6 kmh NNE 3.0 mph4.8 kmh 30.14 in1020.7 mb 0.00 in0.0 mm 0.00 in0.0 mm 0.06 in1.5 mm
04:54 PM 43.0°F6.1°C 41.1°F5.1°C 93% Calm Calm 3.0 mph4.8 kmh 30.14 in1020.7 mb 0.00 in0.0 mm 0.00 in0.0 mm 0.06 in1.5 mm
04:59 PM 42.9°F6.1°C 41.0°F5.0°C 93% 1.0 mph NNE1.6 kmh NNE 1.0 mph1.6 kmh 30.14 in1020.7 mb 0.00 in0.0 mm 0.00 in0.0 mm 0.06 in1.5 mm
05:04 PM 42.9°F6.1°C 41.0°F5.0°C 93% 1.0 mph NE1.6 kmh NE 1.0 mph1.6 kmh 30.15 in1021.0 mb 0.00 in0.0 mm 0.00 in0.0 mm 0.06 in1.5 mm
05:09 PM 42.9°F6.1°C 41.0°F5.0°C 93% Calm Calm 1.0 mph1.6 kmh 30.14 in1020.7 mb 0.00 in0.0 mm 0.00 in0.0 mm 0.06 in1.5 mm
05:14 PM 42.8°F6.0°C 40.9°F4.9°C 93% 1.3 mph NE2.1 kmh NE 2.0 mph3.2 kmh 30.14 in1020.7 mb 0.00 in0.0 mm 0.00 in0.0 mm 0.06 in1.5 mm
05:19 PM 42.7°F5.9°C 41.0°F5.0°C 94% 1.0 mph NNE1.6 kmh NNE 2.0 mph3.2 kmh 30.15 in1021.0 mb 0.00 in0.0 mm 0.00 in0.0 mm 0.06 in1.5 mm
05:24 PM 42.6°F5.9°C 41.0°F5.0°C 94% 1.0 mph NE1.6 kmh NE 2.0 mph3.2 kmh 30.15 in1021.0 mb 0.00 in0.0 mm 0.00 in0.0 mm 0.06 in1.5 mm
05:29 PM 42.5°F5.8°C 40.9°F4.9°C 94% 1.0 mph NNE1.6 kmh NNE 2.0 mph3.2 kmh 30.15 in1021.0 mb 0.00 in0.0 mm 0.00 in0.0 mm 0.06 in1.5 mm
05:34 PM 42.4°F5.8°C 40.8°F4.9°C 94% 1.0 mph NNE1.6 kmh NNE 1.0 mph1.6 kmh 30.16 in1021.3 mb 0.00 in0.0 mm 0.00 in0.0 mm 0.06 in1.5 mm
05:39 PM 42.4°F5.8°C 41.1°F5.1°C 95% Calm Calm 1.0 mph1.6 kmh 30.16 in1021.3 mb 0.00 in0.0 mm 0.00 in0.0 mm 0.06 in1.5 mm
05:44 PM 42.3°F5.7°C 41.0°F5.0°C 95% Calm Calm 1.0 mph1.6 kmh 30.16 in1021.3 mb 0.00 in0.0 mm 0.00 in0.0 mm 0.06 in1.5 mm
05:49 PM 42.2°F5.7°C 40.8°F4.9°C 95% 1.0 mph NNE1.6 kmh NNE 1.0 mph1.6 kmh 30.16 in1021.3 mb 0.00 in0.0 mm 0.00 in0.0 mm 0.06 in1.5 mm
05:54 PM 42.2°F5.7°C 40.9°F4.9°C 95% Calm Calm 1.0 mph1.6 kmh 30.16 in1021.3 mb 0.00 in0.0 mm 0.00 in0.0 mm 0.06 in1.5 mm
05:59 PM 42.2°F5.7°C 40.8°F4.9°C 95% Calm Calm 1.0 mph1.6 kmh 30.16 in1021.3 mb 0.00 in0.0 mm 0.00 in0.0 mm 0.06 in1.5 mm
06:04 PM 42.1°F5.6°C 40.7°F4.8°C 95% 1.5 mph NE2.4 kmh NE 2.0 mph3.2 kmh 30.16 in1021.3 mb 0.00 in0.0 mm 0.00 in0.0 mm 0.06 in1.5 mm
06:09 PM 42.0°F5.6°C 40.9°F4.9°C 96% 1.7 mph NE2.7 kmh NE 3.0 mph4.8 kmh 30.16 in1021.3 mb 0.01 in0.3 mm 0.12 in3.0 mm 0.07 in1.8 mm
06:14 PM 41.8°F5.4°C 40.7°F4.8°C 96% 1.0 mph N1.6 kmh N 3.0 mph4.8 kmh 30.16 in1021.3 mb 0.01 in0.3 mm 0.00 in0.0 mm 0.07 in1.8 mm
06:19 PM 41.7°F5.4°C 40.6°F4.8°C 96% Calm Calm 3.0 mph4.8 kmh 30.17 in1021.7 mb 0.01 in0.3 mm 0.00 in0.0 mm 0.07 in1.8 mm
06:24 PM 41.6°F5.3°C 40.5°F4.7°C 96% 1.2 mph NNE1.9 kmh NNE 3.0 mph4.8 kmh 30.17 in1021.7 mb 0.02 in0.5 mm 0.12 in3.0 mm 0.08 in2.0 mm
06:29 PM 41.6°F5.3°C 40.5°F4.7°C 96% 1.3 mph NE2.1 kmh NE 2.0 mph3.2 kmh 30.17 in1021.7 mb 0.02 in0.5 mm 0.00 in0.0 mm 0.08 in2.0 mm
06:34 PM 41.6°F5.3°C 40.5°F4.7°C 96% Calm Calm 3.0 mph4.8 kmh 30.17 in1021.7 mb 0.02 in0.5 mm 0.00 in0.0 mm 0.08 in2.0 mm
06:39 PM 41.6°F5.3°C 40.5°F4.7°C 96% 1.0 mph NNE1.6 kmh NNE 3.0 mph4.8 kmh 30.17 in1021.7 mb 0.03 in0.8 mm 0.12 in3.0 mm 0.09 in2.3 mm
06:44 PM 41.5°F5.3°C 40.4°F4.7°C 96% 1.4 mph NE2.3 kmh NE 3.0 mph4.8 kmh 30.18 in1022.0 mb 0.03 in0.8 mm 0.00 in0.0 mm 0.09 in2.3 mm
06:49 PM 41.5°F5.3°C 40.7°F4.8°C 97% 2.4 mph NE3.9 kmh NE 4.0 mph6.4 kmh 30.18 in1022.0 mb 0.04 in1.0 mm 0.12 in3.0 mm 0.10 in2.5 mm
06:54 PM 41.4°F5.2°C 40.6°F4.8°C 97% 3.7 mph NE6.0 kmh NE 8.0 mph12.9 kmh 30.18 in1022.0 mb 0.04 in1.0 mm 0.00 in0.0 mm 0.10 in2.5 mm
06:59 PM 41.4°F5.2°C 40.6°F4.8°C 97% Calm Calm 8.0 mph12.9 kmh 30.18 in1022.0 mb 0.04 in1.0 mm 0.00 in0.0 mm 0.10 in2.5 mm
07:04 PM 41.4°F5.2°C 40.6°F4.8°C 97% 1.0 mph NE1.6 kmh NE 8.0 mph12.9 kmh 30.18 in1022.0 mb 0.05 in1.3 mm 0.01 in0.3 mm 0.11 in2.8 mm
07:09 PM 41.3°F5.2°C 40.5°F4.7°C 97% 1.5 mph NE2.4 kmh NE 7.0 mph11.3 kmh 30.18 in1022.0 mb 0.04 in1.0 mm 0.00 in0.0 mm 0.11 in2.8 mm
07:14 PM 41.3°F5.2°C 40.5°F4.7°C 97% 1.5 mph NE2.4 kmh NE 3.0 mph4.8 kmh 30.18 in1022.0 mb 0.04 in1.0 mm 0.00 in0.0 mm 0.11 in2.8 mm
07:19 PM 41.3°F5.2°C 40.5°F4.7°C 97% Calm Calm 3.0 mph4.8 kmh 30.18 in1022.0 mb 0.04 in1.0 mm 0.00 in0.0 mm 0.11 in2.8 mm
07:24 PM 41.2°F5.1°C 40.4°F4.7°C 97% 2.2 mph NNE3.5 kmh NNE 3.0 mph4.8 kmh 30.18 in1022.0 mb 0.04 in1.0 mm 0.00 in0.0 mm 0.12 in3.0 mm
07:28 PM 41.2°F5.1°C 40.4°F4.7°C 97% 2.2 mph NE3.5 kmh NE 4.0 mph6.4 kmh 30.18 in1022.0 mb 0.04 in1.0 mm 0.00 in0.0 mm 0.12 in3.0 mm
07:33 PM 41.2°F5.1°C 40.4°F4.7°C 97% Calm Calm 4.0 mph6.4 kmh 30.18 in1022.0 mb 0.04 in1.0 mm 0.00 in0.0 mm 0.12 in3.0 mm
07:38 PM 41.2°F5.1°C 40.4°F4.7°C 97% 1.0 mph NE1.6 kmh NE 4.0 mph6.4 kmh 30.18 in1022.0 mb 0.03 in0.8 mm 0.00 in0.0 mm 0.12 in3.0 mm
07:43 PM 41.2°F5.1°C 40.4°F4.7°C 97% Calm Calm 4.0 mph6.4 kmh 30.18 in1022.0 mb 0.03 in0.8 mm 0.00 in0.0 mm 0.12 in3.0 mm
07:48 PM 41.2°F5.1°C 40.4°F4.7°C 97% 1.0 mph NNE1.6 kmh NNE 1.0 mph1.6 kmh 30.18 in1022.0 mb 0.03 in0.8 mm 0.00 in0.0 mm 0.13 in3.3 mm
07:53 PM 41.2°F5.1°C 40.4°F4.7°C 97% 1.4 mph NNE2.3 kmh NNE 2.0 mph3.2 kmh 30.18 in1022.0 mb 0.03 in0.8 mm 0.00 in0.0 mm 0.13 in3.3 mm
07:58 PM 41.3°F5.2°C 40.5°F4.7°C 97% 1.9 mph NNE3.1 kmh NNE 3.0 mph4.8 kmh 30.19 in1022.4 mb 0.03 in0.8 mm 0.00 in0.0 mm 0.13 in3.3 mm
08:03 PM 41.3°F5.2°C 40.5°F4.7°C 97% 1.0 mph NNE1.6 kmh NNE 3.0 mph4.8 kmh 30.19 in1022.4 mb 0.02 in0.5 mm 0.00 in0.0 mm 0.13 in3.3 mm
08:08 PM 41.3°F5.2°C 40.5°F4.7°C 97% 1.7 mph N2.7 kmh N 3.0 mph4.8 kmh 30.19 in1022.4 mb 0.02 in0.5 mm 0.00 in0.0 mm 0.13 in3.3 mm
08:13 PM 41.3°F5.2°C 40.5°F4.7°C 97% 1.4 mph NNE2.3 kmh NNE 4.0 mph6.4 kmh 30.19 in1022.4 mb 0.02 in0.5 mm 0.00 in0.0 mm 0.13 in3.3 mm
08:18 PM 41.4°F5.2°C 40.6°F4.8°C 97% 1.0 mph NNE1.6 kmh NNE 4.0 mph6.4 kmh 30.19 in1022.4 mb 0.02 in0.5 mm 0.00 in0.0 mm 0.13 in3.3 mm
08:23 PM 41.4°F5.2°C 40.6°F4.8°C 97% 1.3 mph N2.1 kmh N 4.0 mph6.4 kmh 30.19 in1022.4 mb 0.02 in0.5 mm 0.00 in0.0 mm 0.14 in3.6 mm
08:28 PM 41.4°F5.2°C 40.6°F4.8°C 97% 2.4 mph NNE3.9 kmh NNE 8.0 mph12.9 kmh 30.19 in1022.4 mb 0.02 in0.5 mm 0.00 in0.0 mm 0.14 in3.6 mm
08:33 PM 41.4°F5.2°C 40.6°F4.8°C 97% 2.1 mph N3.4 kmh N 8.0 mph12.9 kmh 30.20 in1022.7 mb 0.02 in0.5 mm 0.00 in0.0 mm 0.14 in3.6 mm
08:38 PM 41.3°F5.2°C 40.5°F4.7°C 97% 4.6 mph NE7.4 kmh NE 8.0 mph12.9 kmh 30.20 in1022.7 mb 0.02 in0.5 mm 0.00 in0.0 mm 0.14 in3.6 mm
08:44 PM 41.3°F5.2°C 40.5°F4.7°C 97% 4.7 mph NNE7.6 kmh NNE 9.0 mph14.5 kmh 30.20 in1022.7 mb 0.02 in0.5 mm 0.00 in0.0 mm 0.14 in3.6 mm
08:49 PM 41.2°F5.1°C 40.4°F4.7°C 97% 2.5 mph NNE4.0 kmh NNE 9.0 mph14.5 kmh 30.20 in1022.7 mb 0.02 in0.5 mm 0.00 in0.0 mm 0.15 in3.8 mm
08:54 PM 41.2°F5.1°C 40.4°F4.7°C 97% 2.2 mph NE3.5 kmh NE 9.0 mph14.5 kmh 30.20 in1022.7 mb 0.02 in0.5 mm 0.00 in0.0 mm 0.15 in3.8 mm
08:59 PM 41.1°F5.1°C 40.3°F4.6°C 97% 3.3 mph NE5.3 kmh NE 9.0 mph14.5 kmh 30.20 in1022.7 mb 0.02 in0.5 mm 0.00 in0.0 mm 0.15 in3.8 mm
09:04 PM 41.1°F5.1°C 40.3°F4.6°C 97% 2.1 mph NNE3.4 kmh NNE 6.0 mph9.7 kmh 30.20 in1022.7 mb 0.02 in0.5 mm 0.00 in0.0 mm 0.15 in3.8 mm
09:09 PM 41.1°F5.1°C 40.3°F4.6°C 97% 1.9 mph NE3.1 kmh NE 6.0 mph9.7 kmh 30.20 in1022.7 mb 0.02 in0.5 mm 0.00 in0.0 mm 0.15 in3.8 mm
09:14 PM 41.1°F5.1°C 40.3°F4.6°C 97% 2.1 mph N3.4 kmh N 7.0 mph11.3 kmh 30.20 in1022.7 mb 0.02 in0.5 mm 0.00 in0.0 mm 0.15 in3.8 mm
09:19 PM 41.0°F5.0°C 40.2°F4.6°C 97% 2.1 mph NNE3.4 kmh NNE 7.0 mph11.3 kmh 30.20 in1022.7 mb 0.02 in0.5 mm 0.00 in0.0 mm 0.15 in3.8 mm
09:24 PM 41.0°F5.0°C 40.2°F4.6°C 97% 1.9 mph NE3.1 kmh NE 7.0 mph11.3 kmh 30.20 in1022.7 mb 0.01 in0.3 mm 0.00 in0.0 mm 0.15 in3.8 mm
09:29 PM 41.0°F5.0°C 40.2°F4.6°C 97% 2.0 mph NE3.2 kmh NE 6.0 mph9.7 kmh 30.20 in1022.7 mb 0.01 in0.3 mm 0.00 in0.0 mm 0.15 in3.8 mm
09:34 PM 41.0°F5.0°C 40.2°F4.6°C 97% 2.2 mph NNE3.5 kmh NNE 6.0 mph9.7 kmh 30.20 in1022.7 mb 0.01 in0.3 mm 0.00 in0.0 mm 0.15 in3.8 mm
09:39 PM 40.9°F4.9°C 40.1°F4.5°C 97% 1.0 mph NE1.6 kmh NE 6.0 mph9.7 kmh 30.20 in1022.7 mb 0.01 in0.3 mm 0.00 in0.0 mm 0.15 in3.8 mm
09:44 PM 40.9°F4.9°C 40.1°F4.5°C 97% 3.0 mph NE4.8 kmh NE 7.0 mph11.3 kmh 30.21 in1023.0 mb 0.01 in0.3 mm 0.00 in0.0 mm 0.15 in3.8 mm
09:49 PM 40.7°F4.8°C 39.9°F4.4°C 97% 7.4 mph NE11.9 kmh NE 13.0 mph20.9 kmh 30.21 in1023.0 mb 0.01 in0.3 mm 0.00 in0.0 mm 0.16 in4.1 mm
09:54 PM 40.4°F4.7°C 39.3°F4.1°C 96% 3.5 mph NE5.6 kmh NE 13.0 mph20.9 kmh 30.21 in1023.0 mb 0.01 in0.3 mm 0.00 in0.0 mm 0.16 in4.1 mm
09:59 PM 39.9°F4.4°C 38.9°F3.8°C 96% 5.6 mph NE9.0 kmh NE 15.0 mph24.1 kmh 30.21 in1023.0 mb 0.01 in0.3 mm 0.00 in0.0 mm 0.16 in4.1 mm
10:04 PM 39.6°F4.2°C 38.5°F3.6°C 96% 4.9 mph NE7.9 kmh NE 15.0 mph24.1 kmh 30.21 in1023.0 mb 0.01 in0.3 mm 0.00 in0.0 mm 0.16 in4.1 mm
10:09 PM 39.5°F4.2°C 38.4°F3.6°C 96% 3.7 mph NE6.0 kmh NE 15.0 mph24.1 kmh 30.22 in1023.4 mb 0.01 in0.3 mm 0.00 in0.0 mm 0.16 in4.1 mm
10:14 PM 39.3°F4.1°C 38.2°F3.4°C 96% 2.4 mph NE3.9 kmh NE 15.0 mph24.1 kmh 30.22 in1023.4 mb 0.01 in0.3 mm 0.00 in0.0 mm 0.16 in4.1 mm
10:19 PM 39.2°F4.0°C 38.1°F3.4°C 96% 3.1 mph NE5.0 kmh NE 12.0 mph19.3 kmh 30.22 in1023.4 mb 0.01 in0.3 mm 0.00 in0.0 mm 0.16 in4.1 mm
10:24 PM 39.2°F4.0°C 38.2°F3.4°C 96% 2.5 mph NE4.0 kmh NE 11.0 mph17.7 kmh 30.22 in1023.4 mb 0.01 in0.3 mm 0.00 in0.0 mm 0.16 in4.1 mm
10:29 PM 39.1°F3.9°C 38.0°F3.3°C 96% 4.3 mph NE6.9 kmh NE 10.0 mph16.1 kmh 30.22 in1023.4 mb 0.01 in0.3 mm 0.00 in0.0 mm 0.16 in4.1 mm
10:34 PM 39.1°F3.9°C 38.1°F3.4°C 96% 4.2 mph NE6.8 kmh NE 12.0 mph19.3 kmh 30.22 in1023.4 mb 0.02 in0.5 mm 0.12 in3.0 mm 0.17 in4.3 mm
10:39 PM 39.0°F3.9°C 37.9°F3.3°C 96% 3.8 mph NE6.1 kmh NE 12.0 mph19.3 kmh 30.22 in1023.4 mb 0.02 in0.5 mm 0.00 in0.0 mm 0.17 in4.3 mm
10:44 PM 39.0°F3.9°C 37.9°F3.3°C 96% 1.2 mph NE1.9 kmh NE 12.0 mph19.3 kmh 30.22 in1023.4 mb 0.02 in0.5 mm 0.00 in0.0 mm 0.17 in4.3 mm
10:49 PM 38.9°F3.8°C 37.8°F3.2°C 96% 2.0 mph NE3.2 kmh NE 11.0 mph17.7 kmh 30.22 in1023.4 mb 0.01 in0.3 mm 0.00 in0.0 mm 0.17 in4.3 mm
10:54 PM 38.9°F3.8°C 37.8°F3.2°C 96% 5.1 mph NE8.2 kmh NE 11.0 mph17.7 kmh 30.22 in1023.4 mb 0.01 in0.3 mm 0.00 in0.0 mm 0.17 in4.3 mm
10:59 PM 38.8°F3.8°C 37.8°F3.2°C 96% 5.2 mph NE8.4 kmh NE 12.0 mph19.3 kmh 30.23 in1023.7 mb 0.01 in0.3 mm 0.00 in0.0 mm 0.17 in4.3 mm
11:04 PM 38.7°F3.7°C 37.7°F3.2°C 96% 3.2 mph NE5.1 kmh NE 12.0 mph19.3 kmh 30.23 in1023.7 mb 0.01 in0.3 mm 0.00 in0.0 mm 0.17 in4.3 mm
11:09 PM 38.7°F3.7°C 37.6°F3.1°C 96% 4.4 mph NE7.1 kmh NE 12.0 mph19.3 kmh 30.23 in1023.7 mb 0.01 in0.3 mm 0.00 in0.0 mm 0.17 in4.3 mm
11:14 PM 38.6°F3.7°C 37.5°F3.1°C 96% 6.5 mph NE10.5 kmh NE 12.0 mph19.3 kmh 30.23 in1023.7 mb 0.01 in0.3 mm 0.00 in0.0 mm 0.17 in4.3 mm
11:19 PM 38.6°F3.7°C 37.2°F2.9°C 95% 3.7 mph NE6.0 kmh NE 12.0 mph19.3 kmh 30.23 in1023.7 mb 0.01 in0.3 mm 0.00 in0.0 mm 0.17 in4.3 mm
11:24 PM 38.6°F3.7°C 37.3°F2.9°C 95% 3.0 mph NE4.8 kmh NE 12.0 mph19.3 kmh 30.23 in1023.7 mb 0.01 in0.3 mm 0.00 in0.0 mm 0.17 in4.3 mm
11:29 PM 38.5°F3.6°C 37.5°F3.1°C 96% 4.3 mph NE6.9 kmh NE 12.0 mph19.3 kmh 30.23 in1023.7 mb 0.01 in0.3 mm 0.00 in0.0 mm 0.17 in4.3 mm
11:34 PM 38.5°F3.6°C 37.5°F3.1°C 96% 3.4 mph NE5.5 kmh NE 12.0 mph19.3 kmh 30.23 in1023.7 mb 0.00 in0.0 mm 0.00 in0.0 mm 0.17 in4.3 mm
11:39 PM 38.5°F3.6°C 37.5°F3.1°C 96% 1.6 mph NE2.6 kmh NE 9.0 mph14.5 kmh 30.24 in1024.0 mb 0.00 in0.0 mm 0.00 in0.0 mm 0.17 in4.3 mm
11:44 PM 38.5°F3.6°C 37.4°F3.0°C 96% 2.9 mph NE4.7 kmh NE 9.0 mph14.5 kmh 30.23 in1023.7 mb 0.00 in0.0 mm 0.00 in0.0 mm 0.17 in4.3 mm
11:49 PM 38.5°F3.6°C 37.4°F3.0°C 96% 1.0 mph NE1.6 kmh NE 9.0 mph14.5 kmh 30.23 in1023.7 mb 0.00 in0.0 mm 0.00 in0.0 mm 0.17 in4.3 mm
11:54 PM 38.4°F3.6°C 37.3°F2.9°C 96% 3.0 mph NE4.8 kmh NE 7.0 mph11.3 kmh 30.23 in1023.7 mb 0.00 in0.0 mm 0.00 in0.0 mm 0.17 in4.3 mm
11:59 PM 38.4°F3.6°C 37.4°F3.0°C 96% 1.0 mph NNE1.6 kmh NNE 7.0 mph11.3 kmh 30.23 in1023.7 mb 0.00 in0.0 mm 0.00 in0.0 mm 0.17 in4.3 mm